South Pass City, Wyoming
Current Conditions -  °F | °C
As of 9:15 PM on Tuesday 21 Oct 2014 (Local Time) from KFWZ Reporting Station
Clear Clear  
Wind Chill: 32°   Ceiling: Unl
Heat Index: 39°   Visibility: 10mi
Dew Point: 27°   Wind: 12mph
Humidity: 61%   Direction: 250°WSW
Pressure: 29.99"   Gusts: NA
Location:  42.6143°N, 108.586°W
Report Text: KFWZ 220315Z AUTO 25010KT 10SM CLR 04/M03 A2999 RMK AO2
Loading
Personal Weather Stations






























Interactive Weather Map
Tropical Storm Tracking
New forecast layout! Learn more

10-Day Weather Forecast

Advertisements
Track Severe Weather on mobile